Time;durP1;ratioP1;P1;durP2;ratioP2;P2;SDS_P1;SDS_P2;PMS_P1;PMS_P2;Temp;Humidity;BMP_temperature;BMP_pressure;BME280_temperature;BME280_humidity;BME280_pressure;Samples;Min_cycle;Max_cycle;Signal;HPM_P1;HPM_P2
2023/09/07 00:00:29;;;;;;;;;;;;;;;19.69;94.07;101954.72;5036084;28;19917;-74
2023/09/07 00:02:54;;;;;;;;;;;;;;;19.68;94.04;101950.34;5036802;28;19924;-74
2023/09/07 00:05:19;;;;;;;;;;;;;;;19.68;93.79;101943.25;5036790;28;19920;-74
2023/09/07 00:07:45;;;;;;;;;;;;;;;19.69;93.86;101944.09;5037178;28;19916;-74
2023/09/07 00:10:10;;;;;;;;;;;;;;;19.72;93.71;101941.28;5036995;28;19921;-74
2023/09/07 00:12:39;;;;;;;;;;;;;;;19.74;93.30;101947.38;5036485;28;19971;-74
2023/09/07 00:15:06;;;;;;;;;;;;;;;19.75;92.96;101941.09;5036966;28;20039;-74
2023/09/07 00:17:31;;;;;;;;;;;;;;;19.74;92.73;101942.91;5035967;28;19939;-74
2023/09/07 00:19:58;;;;;;;;;;;;;;;19.73;92.39;101946.50;5037020;28;19917;-74
2023/09/07 00:22:23;;;;;;;;;;;;;;;19.70;92.22;101944.00;5036028;28;19917;-74
2023/09/07 00:24:49;;;;;;;;;;;;;;;19.67;92.20;101936.22;5036699;28;19912;-74
2023/09/07 00:27:14;;;;;;;;;;;;;;;19.66;92.36;101938.97;5036921;28;20084;-74
2023/09/07 00:29:39;;;;;;;;;;;;;;;19.63;92.29;101948.00;5036244;28;20123;-74
2023/09/07 00:32:05;;;;;;;;;;;;;;;19.60;92.32;101944.69;5036384;28;20338;-74
2023/09/07 00:34:30;;;;;;;;;;;;;;;19.56;92.44;101944.84;5036213;28;20108;-74
2023/09/07 00:36:56;;;;;;;;;;;;;;;19.53;92.52;101945.03;5036856;28;19952;-74
2023/09/07 00:39:21;;;;;;;;;;;;;;;19.51;92.80;101948.75;5035883;28;20243;-74
2023/09/07 00:41:47;;;;;;;;;;;;;;;19.49;92.76;101950.66;5036171;28;19921;-74
2023/09/07 00:44:12;;;;;;;;;;;;;;;19.47;92.95;101944.56;5036448;28;20201;-74
2023/09/07 00:46:37;;;;;;;;;;;;;;;19.45;92.96;101941.16;5035521;28;19913;-74
2023/09/07 00:49:04;;;;;;;;;;;;;;;19.43;93.03;101937.72;5036453;28;19925;-74
2023/09/07 00:51:29;;;;;;;;;;;;;;;19.42;93.07;101936.03;5036129;28;20004;-74
2023/09/07 00:53:55;;;;;;;;;;;;;;;19.41;93.34;101940.50;5036268;28;19917;-74
2023/09/07 00:56:20;;;;;;;;;;;;;;;19.41;93.36;101940.50;5035832;28;19905;-74
2023/09/07 00:58:45;;;;;;;;;;;;;;;19.41;93.27;101936.97;5036252;28;19937;-74
2023/09/07 01:04:14;;;;;;;;;;;;;;;19.43;93.05;101927.09;5359165;22;19931;-73
2023/09/07 01:06:42;;;;;;;;;;;;;;;19.42;93.02;101928.91;5046154;28;19944;-73
2023/09/07 01:09:14;;;;;;;;;;;;;;;19.42;93.06;101923.59;5035996;28;19948;-73
2023/09/07 01:11:40;;;;;;;;;;;;;;;19.41;93.02;101923.66;5035523;28;20261;-73
2023/09/07 01:14:05;;;;;;;;;;;;;;;19.39;93.11;101923.75;5035998;28;19916;-73
2023/09/07 01:16:33;;;;;;;;;;;;;;;19.35;93.23;101925.75;5035157;28;19917;-73
2023/09/07 01:18:59;;;;;;;;;;;;;;;19.33;93.04;101921.50;5035767;28;19944;-73
2023/09/07 01:21:25;;;;;;;;;;;;;;;19.31;93.29;101918.06;5035239;28;19967;-73
2023/09/07 01:23:50;;;;;;;;;;;;;;;19.29;93.38;101919.97;5035634;28;19921;-73
2023/09/07 01:26:16;;;;;;;;;;;;;;;19.27;93.45;101920.06;5035283;28;19939;-73
2023/09/07 01:28:41;;;;;;;;;;;;;;;19.25;93.63;101914.00;5035357;28;20238;-73
2023/09/07 01:31:07;;;;;;;;;;;;;;;19.23;93.58;101920.31;5035823;28;20098;-73
2023/09/07 01:33:32;;;;;;;;;;;;;;;19.20;93.61;101918.72;5034749;28;20011;-73
2023/09/07 01:35:57;;;;;;;;;;;;;;;19.17;93.86;101916.25;5035704;28;19917;-73
2023/09/07 01:38:23;;;;;;;;;;;;;;;19.12;93.97;101918.34;5034869;28;19913;-73
2023/09/07 01:40:48;;;;;;;;;;;;;;;19.10;94.35;101913.13;5035383;28;19921;-73
2023/09/07 01:43:13;;;;;;;;;;;;;;;19.07;94.55;101920.41;5035463;28;19959;-73
2023/09/07 01:45:39;;;;;;;;;;;;;;;19.02;94.55;101925.97;5034111;28;19955;-73
2023/09/07 01:48:08;;;;;;;;;;;;;;;18.97;94.58;101923.63;5035202;28;19974;-73
2023/09/07 01:50:33;;;;;;;;;;;;;;;18.93;94.81;101919.41;5034739;28;20120;-73
2023/09/07 01:52:58;;;;;;;;;;;;;;;18.90;95.12;101922.25;5017622;28;19913;-73
2023/09/07 01:55:23;;;;;;;;;;;;;;;18.85;95.23;101918.16;5034358;28;19955;-73
2023/09/07 01:57:49;;;;;;;;;;;;;;;18.83;95.45;101928.00;5035012;28;19917;-73
2023/09/07 02:00:14;;;;;;;;;;;;;;;18.77;95.72;101918.56;5034908;28;20188;-73
2023/09/07 02:02:39;;;;;;;;;;;;;;;18.77;95.82;101926.53;5034248;28;19913;-73
2023/09/07 02:05:05;;;;;;;;;;;;;;;18.73;95.89;101919.69;5034526;28;19920;-73
2023/09/07 02:07:30;;;;;;;;;;;;;;;18.69;96.16;101924.31;5034688;28;19917;-73
2023/09/07 02:09:55;;;;;;;;;;;;;;;18.65;96.29;101919.28;5035005;28;19955;-73
2023/09/07 02:12:21;;;;;;;;;;;;;;;18.64;96.41;101922.88;5034397;28;19917;-73
2023/09/07 02:14:46;;;;;;;;;;;;;;;18.65;96.79;101927.25;5036973;28;19912;-73
2023/09/07 02:17:17;;;;;;;;;;;;;;;18.64;96.53;101925.53;5038808;28;20219;-73
2023/09/07 02:19:42;;;;;;;;;;;;;;;18.61;96.38;101923.94;5039036;28;19919;-73
2023/09/07 02:22:08;;;;;;;;;;;;;;;18.59;96.26;101917.81;5039049;28;19951;-73
2023/09/07 02:24:34;;;;;;;;;;;;;;;18.55;96.62;101926.91;5038449;28;19917;-73
2023/09/07 02:26:59;;;;;;;;;;;;;;;18.55;96.55;101925.09;5039081;28;20119;-73
2023/09/07 02:29:25;;;;;;;;;;;;;;;18.55;96.60;101913.66;5038576;28;20244;-73
2023/09/07 02:31:50;;;;;;;;;;;;;;;18.53;96.53;101924.34;5039168;28;20247;-73
2023/09/07 02:34:15;;;;;;;;;;;;;;;18.53;96.57;101911.06;5039100;28;19913;-73
2023/09/07 02:36:40;;;;;;;;;;;;;;;18.51;96.69;101912.13;5038142;28;19951;-73
2023/09/07 02:39:08;;;;;;;;;;;;;;;18.52;96.94;101912.03;5021127;28;19920;-73
2023/09/07 02:41:33;;;;;;;;;;;;;;;18.53;96.92;101907.56;5037815;28;20227;-73
2023/09/07 02:43:59;;;;;;;;;;;;;;;18.54;96.98;101918.09;5038464;28;19917;-73
2023/09/07 02:46:24;;;;;;;;;;;;;;;18.55;96.83;101918.94;5037908;28;19917;-73
2023/09/07 02:48:49;;;;;;;;;;;;;;;18.55;96.79;101917.16;5038522;28;20314;-73
2023/09/07 02:51:15;;;;;;;;;;;;;;;18.55;96.76;101917.16;5038816;28;19945;-73
2023/09/07 02:53:40;;;;;;;;;;;;;;;18.55;96.86;101911.84;5038581;28;19984;-73
2023/09/07 02:56:07;;;;;;;;;;;;;;;18.53;96.91;101911.06;5038318;28;20024;-73
2023/09/07 02:58:33;;;;;;;;;;;;;;;18.52;97.04;101924.41;5038656;28;19924;-74
2023/09/07 03:00:58;;;;;;;;;;;;;;;18.51;96.92;101926.22;5038242;28;19917;-74
2023/09/07 03:03:24;;;;;;;;;;;;;;;18.50;96.74;101921.00;5037849;28;19924;-74
2023/09/07 03:05:49;;;;;;;;;;;;;;;18.47;96.78;101915.91;5037923;28;19951;-74
2023/09/07 03:08:14;;;;;;;;;;;;;;;18.44;96.91;101916.06;5038521;28;20365;-74
2023/09/07 03:10:40;;;;;;;;;;;;;;;18.42;96.90;101924.09;5037909;28;19927;-74
2023/09/07 03:13:06;;;;;;;;;;;;;;;18.41;97.13;101923.25;5038228;28;19905;-74
2023/09/07 03:15:32;;;;;;;;;;;;;;;18.40;97.17;101913.56;5037637;28;20143;-74
2023/09/07 03:17:57;;;;;;;;;;;;;;;18.40;97.35;101918.88;5038669;28;20112;-74
2023/09/07 03:20:22;;;;;;;;;;;;;;;18.40;97.39;101924.19;5038031;28;19917;-74
2023/09/07 03:22:48;;;;;;;;;;;;;;;18.40;97.44;101923.34;5038053;28;19917;-74
2023/09/07 03:25:13;;;;;;;;;;;;;;;18.40;97.15;101928.63;5037788;28;19919;-74
2023/09/07 03:27:38;;;;;;;;;;;;;;;18.37;96.96;101924.38;5037130;28;20205;-74
2023/09/07 03:30:05;;;;;;;;;;;;;;;18.36;96.97;101924.47;5038349;28;19951;-74
2023/09/07 03:32:32;;;;;;;;;;;;;;;18.32;96.96;101914.94;5037162;28;19917;-74
2023/09/07 03:35:00;;;;;;;;;;;;;;;18.29;96.95;101921.28;5037924;28;19963;-74
2023/09/07 03:37:29;;;;;;;;;;;;;;;18.26;97.13;101908.19;5017521;28;19917;-74
2023/09/07 03:39:57;;;;;;;;;;;;;;;18.24;97.11;101915.38;5032950;28;19917;-74
2023/09/07 03:42:23;;;;;;;;;;;;;;;18.21;97.18;101912.94;5036152;28;20184;-74
2023/09/07 03:44:48;;;;;;;;;;;;;;;18.20;97.20;101916.50;5037930;28;20214;-74
2023/09/07 03:47:15;;;;;;;;;;;;;;;18.18;97.08;101915.72;5037562;28;19955;-74
2023/09/07 03:49:40;;;;;;;;;;;;;;;18.15;97.32;101913.25;5037197;28;19924;-74
2023/09/07 03:52:05;;;;;;;;;;;;;;;18.11;97.23;101912.56;5037230;28;19913;-74
2023/09/07 03:54:31;;;;;;;;;;;;;;;18.09;97.35;101917.09;5036806;28;19984;-74
2023/09/07 03:56:56;;;;;;;;;;;;;;;18.06;97.50;101916.41;5037395;28;19913;-74
2023/09/07 03:59:22;;;;;;;;;;;;;;;18.02;97.42;101926.31;5037052;28;19917;-74
2023/09/07 04:01:47;;;;;;;;;;;;;;;17.99;97.74;101929.13;5036690;28;19916;-74
2023/09/07 04:04:12;;;;;;;;;;;;;;;17.96;98.08;101930.16;5036032;28;20177;-74
2023/09/07 04:06:38;;;;;;;;;;;;;;;17.94;98.25;101925.91;5035977;28;19960;-74
2023/09/07 04:09:03;;;;;;;;;;;;;;;17.92;98.29;101930.41;5037287;28;20223;-74
2023/09/07 04:11:29;;;;;;;;;;;;;;;17.91;98.31;101932.22;5037193;28;19978;-74
2023/09/07 04:13:54;;;;;;;;;;;;;;;17.90;98.53;101935.81;5019534;28;19947;-74
2023/09/07 04:16:20;;;;;;;;;;;;;;;17.89;98.28;101933.25;5036742;28;20285;-74
2023/09/07 04:18:45;;;;;;;;;;;;;;;17.86;98.22;101928.94;5037196;28;19924;-74
2023/09/07 04:21:11;;;;;;;;;;;;;;;17.84;98.15;101930.78;5036767;28;20054;-74
2023/09/07 04:23:36;;;;;;;;;;;;;;;17.82;98.15;101932.69;5036360;28;20107;-74
2023/09/07 04:26:08;;;;;;;;;;;;;;;17.80;98.27;101926.59;5037181;28;19920;-74
2023/09/07 04:28:33;;;;;;;;;;;;;;;17.77;98.10;101932.94;5036392;28;19912;-74
2023/09/07 04:30:58;;;;;;;;;;;;;;;17.73;98.29;101928.72;5037004;28;20241;-74
2023/09/07 04:33:24;;;;;;;;;;;;;;;17.72;98.38;101928.78;5035855;28;20212;-74
2023/09/07 04:35:49;;;;;;;;;;;;;;;17.70;98.32;101928.91;5036904;28;20233;-74
2023/09/07 04:38:14;;;;;;;;;;;;;;;17.68;98.47;101929.91;5034787;28;19917;-74
2023/09/07 04:40:40;;;;;;;;;;;;;;;17.65;98.27;101928.28;5036110;28;19955;-74
2023/09/07 04:43:05;;;;;;;;;;;;;;;17.63;98.38;101927.53;5035989;28;19995;-74
2023/09/07 04:45:30;;;;;;;;;;;;;;;17.62;98.42;101931.94;5035876;28;19912;-74
2023/09/07 04:47:55;;;;;;;;;;;;;;;17.61;98.38;101932.03;5036092;28;19921;-74
2023/09/07 04:50:21;;;;;;;;;;;;;;;17.59;98.34;101931.25;5035961;28;19941;-74
2023/09/07 04:52:46;;;;;;;;;;;;;;;17.57;98.50;101930.47;5035515;28;19917;-74
2023/09/07 04:55:11;;;;;;;;;;;;;;;17.55;98.56;101935.00;5036490;28;19912;-74
2023/09/07 04:57:37;;;;;;;;;;;;;;;17.53;98.61;101932.44;5035867;28;20447;-74
2023/09/07 05:00:03;;;;;;;;;;;;;;;17.51;98.57;101942.25;5036328;28;19924;-74
2023/09/07 05:02:29;;;;;;;;;;;;;;;17.50;98.91;101940.56;5035247;28;19917;-74
2023/09/07 05:04:54;;;;;;;;;;;;;;;17.48;98.71;101939.75;5035983;28;19921;-74
2023/09/07 05:07:19;;;;;;;;;;;;;;;17.48;98.72;101950.34;5035666;28;19959;-74
2023/09/07 05:09:45;;;;;;;;;;;;;;;17.47;98.97;101946.00;5036016;28;19912;-74
2023/09/07 05:12:10;;;;;;;;;;;;;;;17.45;99.10;101951.38;5035642;28;19976;-74
2023/09/07 05:14:36;;;;;;;;;;;;;;;17.46;99.05;101952.22;5035265;28;19939;-74
2023/09/07 05:17:01;;;;;;;;;;;;;;;17.45;99.30;101951.38;5017735;28;20179;-74
2023/09/07 05:19:26;;;;;;;;;;;;;;;17.47;99.29;101948.66;5032257;28;19992;-74
2023/09/07 05:21:52;;;;;;;;;;;;;;;17.47;99.26;101948.66;5034856;28;20221;-74
2023/09/07 05:24:17;;;;;;;;;;;;;;;17.47;99.12;101951.28;5034523;28;19917;-74
2023/09/07 05:26:43;;;;;;;;;;;;;;;17.48;99.23;101952.16;5035510;28;19921;-74
2023/09/07 05:29:08;;;;;;;;;;;;;;;17.48;99.12;101947.69;5036104;28;19909;-74
2023/09/07 05:31:33;;;;;;;;;;;;;;;17.48;99.30;101944.19;5034818;28;19913;-74
2023/09/07 05:34:00;;;;;;;;;;;;;;;17.48;99.29;101946.84;5037913;28;19917;-74
2023/09/07 05:36:27;;;;;;;;;;;;;;;17.46;99.24;101955.75;5034892;28;19952;-74
2023/09/07 05:38:52;;;;;;;;;;;;;;;17.46;99.59;101955.75;5031844;28;20241;-74
2023/09/07 05:41:17;;;;;;;;;;;;;;;17.45;99.67;101951.38;5035255;28;19917;-74
2023/09/07 05:43:42;;;;;;;;;;;;;;;17.46;99.99;101957.50;5034469;28;19924;-74
2023/09/07 05:46:08;;;;;;;;;;;;;;;17.49;100.00;101957.38;5035001;28;19912;-74
2023/09/07 05:48:33;;;;;;;;;;;;;;;17.52;100.00;101962.50;5034692;28;19909;-74
2023/09/07 05:51:01;;;;;;;;;;;;;;;17.56;100.00;101955.25;5035391;28;19917;-74
2023/09/07 05:53:26;;;;;;;;;;;;;;;17.60;100.00;101956.81;5034162;28;19916;-74
2023/09/07 05:55:52;;;;;;;;;;;;;;;17.62;100.00;101961.06;5034846;28;19917;-74
2023/09/07 05:58:17;;;;;;;;;;;;;;;17.63;100.00;101954.84;5034498;28;20146;-74
2023/09/07 06:00:43;;;;;;;;;;;;;;;17.67;100.00;101957.34;5034350;28;20225;-74
2023/09/07 06:03:09;;;;;;;;;;;;;;;17.75;100.00;101961.28;5034030;28;20266;-74
2023/09/07 06:05:35;;;;;;;;;;;;;;;17.81;100.00;101960.97;5033678;28;20127;-74
2023/09/07 06:08:01;;;;;;;;;;;;;;;17.84;100.00;101962.59;5013830;28;19928;-74
2023/09/07 06:10:27;;;;;;;;;;;;;;;17.91;100.00;101968.47;5018840;28;19918;-74
2023/09/07 06:12:52;;;;;;;;;;;;;;;17.90;100.00;101969.38;5014648;28;19948;-74
2023/09/07 06:15:18;;;;;;;;;;;;;;;17.96;100.00;101971.72;5032831;28;20147;-74
2023/09/07 06:17:43;;;;;;;;;;;;;;;18.01;99.60;101973.19;5034359;28;19923;-74
2023/09/07 06:20:09;;;;;;;;;;;;;;;18.00;99.66;101976.75;5034513;28;19924;-74
2023/09/07 06:22:34;;;;;;;;;;;;;;;18.06;99.60;101985.31;5034695;28;20231;-74
2023/09/07 06:24:59;;;;;;;;;;;;;;;18.10;99.61;101987.75;5034593;28;19916;-74
2023/09/07 06:27:25;;;;;;;;;;;;;;;18.12;99.63;101988.50;5034220;28;19911;-74
2023/09/07 06:29:50;;;;;;;;;;;;;;;18.16;99.39;101983.91;5034290;28;19916;-74
2023/09/07 06:32:16;;;;;;;;;;;;;;;18.18;99.47;101989.97;5034431;28;19947;-74
2023/09/07 06:34:41;;;;;;;;;;;;;;;18.19;99.30;101991.66;5032197;28;20445;-74
2023/09/07 06:37:06;;;;;;;;;;;;;;;18.25;99.24;101983.38;5030874;28;20047;-74
2023/09/07 06:39:32;;;;;;;;;;;;;;;18.30;98.91;101988.41;5032297;28;19963;-74
2023/09/07 06:41:57;;;;;;;;;;;;;;;18.33;99.16;101978.50;5031038;28;20175;-74
2023/09/07 06:44:22;;;;;;;;;;;;;;;18.38;98.81;101978.25;5029546;28;20023;-74
2023/09/07 06:46:49;;;;;;;;;;;;;;;18.45;98.45;101984.94;5028645;28;19917;-74
2023/09/07 06:49:14;;;;;;;;;;;;;;;18.50;97.93;101985.53;5029829;28;20200;-74
2023/09/07 06:51:39;;;;;;;;;;;;;;;18.54;97.88;101986.22;5031112;28;19980;-74
2023/09/07 06:54:04;;;;;;;;;;;;;;;18.59;97.78;101986.78;5030813;28;19916;-74
2023/09/07 06:56:32;;;;;;;;;;;;;;;18.65;97.64;101980.31;5032286;28;19909;-74
2023/09/07 06:58:57;;;;;;;;;;;;;;;18.67;97.56;101981.94;5032669;28;19923;-74
2023/09/07 07:01:22;;;;;;;;;;;;;;;18.73;97.56;101989.53;5033638;28;20251;-74
2023/09/07 07:03:49;;;;;;;;;;;;;;;18.77;97.27;101992.88;5036825;28;19936;-74
2023/09/07 07:06:14;;;;;;;;;;;;;;;18.83;96.75;101995.22;5021175;28;19969;-73
2023/09/07 07:08:39;;;;;;;;;;;;;;;18.88;96.45;101992.28;5034825;28;19925;-74
2023/09/07 07:11:04;;;;;;;;;;;;;;;18.94;96.12;101989.28;5036675;28;19913;-73
2023/09/07 07:13:30;;;;;;;;;;;;;;;18.97;95.60;101984.66;5036227;28;19912;-74
2023/09/07 07:15:55;;;;;;;;;;;;;;;19.06;95.11;101988.56;5036681;28;19924;-73
2023/09/07 07:18:20;;;;;;;;;;;;;;;19.09;94.71;101992.84;5035987;28;19959;-74
2023/09/07 07:20:46;;;;;;;;;;;;;;;19.13;94.46;101992.56;5036085;28;20095;-74
2023/09/07 07:23:12;;;;;;;;;;;;;;;19.20;94.17;101992.22;5037179;28;19983;-74
2023/09/07 07:25:38;;;;;;;;;;;;;;;19.27;93.59;101988.25;5035896;28;19916;-74
2023/09/07 07:28:05;;;;;;;;;;;;;;;19.33;93.45;101987.88;5036170;28;19924;-74
2023/09/07 07:30:34;;;;;;;;;;;;;;;19.40;93.04;101983.06;5034036;28;20000;-74
2023/09/07 07:32:59;;;;;;;;;;;;;;;19.44;92.84;101985.44;5030733;28;19929;-74
2023/09/07 07:35:25;;;;;;;;;;;;;;;19.46;93.19;101980.03;5029619;28;19939;-74
2023/09/07 07:37:50;;;;;;;;;;;;;;;19.53;92.77;101976.91;5035664;28;19921;-74
2023/09/07 07:40:17;;;;;;;;;;;;;;;19.59;92.47;101975.69;5036023;28;20346;-74
2023/09/07 07:42:43;;;;;;;;;;;;;;;19.65;92.23;101969.16;5035846;28;20213;-74
2023/09/07 07:45:08;;;;;;;;;;;;;;;19.71;92.25;101974.09;5036807;28;19909;-73
2023/09/07 07:47:33;;;;;;;;;;;;;;;19.76;91.64;101977.38;5036605;28;20171;-74
2023/09/07 07:49:59;;;;;;;;;;;;;;;19.81;91.50;101974.41;5037319;28;19971;-74
2023/09/07 07:52:24;;;;;;;;;;;;;;;19.87;91.29;101963.41;5032737;28;19943;-74
2023/09/07 07:54:49;;;;;;;;;;;;;;;19.97;90.62;101958.38;5036056;28;19923;-74
2023/09/07 07:57:14;;;;;;;;;;;;;;;20.01;90.35;101960.75;5036117;28;20158;-74
2023/09/07 07:59:40;;;;;;;;;;;;;;;20.05;90.11;101956.94;5035582;28;20104;-74
2023/09/07 08:02:05;;;;;;;;;;;;;;;20.14;89.16;101964.34;5037880;28;20216;-74
2023/09/07 08:04:32;;;;;;;;;;;;;;;20.19;88.77;101961.34;5036771;28;19924;-74
2023/09/07 08:06:59;;;;;;;;;;;;;;;20.20;87.77;101962.25;5036833;28;19992;-74
2023/09/07 08:09:25;;;;;;;;;;;;;;;20.21;87.73;101962.16;5036305;28;19912;-74
2023/09/07 08:11:51;;;;;;;;;;;;;;;20.27;87.40;101955.56;5036175;28;20253;-74
2023/09/07 08:14:16;;;;;;;;;;;;;;;20.28;87.38;101958.13;5036080;28;19913;-74
2023/09/07 08:16:41;;;;;;;;;;;;;;;20.34;87.02;101964.88;5035119;28;20302;-74
2023/09/07 08:19:07;;;;;;;;;;;;;;;20.38;86.75;101961.06;5035416;28;19959;-74
2023/09/07 08:21:33;;;;;;;;;;;;;;;20.44;85.84;101957.97;5028913;28;19956;-74
2023/09/07 08:24:00;;;;;;;;;;;;;;;20.47;86.14;101955.13;5026883;28;20220;-74
2023/09/07 08:26:25;;;;;;;;;;;;;;;20.57;85.66;101951.88;5031768;28;19917;-74
2023/09/07 08:28:50;;;;;;;;;;;;;;;20.62;85.27;101960.44;5034824;28;20295;-74
2023/09/07 08:31:21;;;;;;;;;;;;;;;20.66;85.06;101957.47;5032106;28;19936;-74
2023/09/07 08:33:50;;;;;;;;;;;;;;;20.68;83.92;101952.91;5029134;28;19917;-73
2023/09/07 08:36:17;;;;;;;;;;;;;;;20.71;84.34;101954.50;5035974;28;20215;-74
2023/09/07 08:38:42;;;;;;;;;;;;;;;20.78;84.53;101961.13;5032349;28;19916;-74
2023/09/07 08:41:08;;;;;;;;;;;;;;;20.85;83.79;101953.63;5034244;28;19924;-74
2023/09/07 08:43:35;;;;;;;;;;;;;;;20.88;83.81;101961.38;5033721;28;20053;-74
2023/09/07 08:46:14;;;;;;;;;;;;;;;20.85;83.95;101950.94;5035061;28;19951;-74
2023/09/07 08:48:39;;;;;;;;;;;;;;;20.86;83.97;101949.97;5034830;28;20157;-74
2023/09/07 08:51:06;;;;;;;;;;;;;;;20.94;83.76;101946.78;5036052;28;19914;-74
2023/09/07 08:53:32;;;;;;;;;;;;;;;20.97;83.60;101941.28;5035834;28;19920;-74
2023/09/07 08:55:58;;;;;;;;;;;;;;;21.00;83.70;101951.72;5036004;28;19917;-74
2023/09/07 08:58:23;;;;;;;;;;;;;;;21.06;83.23;101944.16;5035545;28;19920;-74
2023/09/07 09:00:49;;;;;;;;;;;;;;;21.09;83.47;101943.13;5035185;28;20154;-74
2023/09/07 09:03:14;;;;;;;;;;;;;;;21.17;83.24;101943.44;5035633;28;20285;-74
2023/09/07 09:05:40;;;;;;;;;;;;;;;21.21;82.95;101939.63;5034820;28;20035;-73
2023/09/07 09:08:06;;;;;;;;;;;;;;;21.27;82.38;101933.84;5035211;28;19976;-74
2023/09/07 09:10:31;;;;;;;;;;;;;;;21.36;82.76;101934.19;5035536;28;20222;-74
2023/09/07 09:12:59;;;;;;;;;;;;;;;21.45;82.61;101938.91;5036204;28;19917;-73
2023/09/07 09:15:25;;;;;;;;;;;;;;;21.52;82.46;101926.88;5035171;28;19948;-74
2023/09/07 09:17:50;;;;;;;;;;;;;;;21.59;82.61;101933.47;5027240;28;19924;-74
2023/09/07 09:20:26;;;;;;;;;;;;;;;21.65;82.15;101937.53;5027621;28;19916;-74
2023/09/07 09:22:52;;;;;;;;;;;;;;;21.78;81.81;101930.34;5026432;28;20012;-74
2023/09/07 09:25:17;;;;;;;;;;;;;;;21.92;80.51;101932.06;5026251;28;19917;-74
2023/09/07 09:27:43;;;;;;;;;;;;;;;22.02;80.31;101941.09;5028852;28;19981;-74
2023/09/07 09:30:08;;;;;;;;;;;;;;;22.09;79.83;101932.66;5029321;28;19917;-74
2023/09/07 09:32:34;;;;;;;;;;;;;;;22.17;79.28;101935.59;5028586;28;19929;-74
2023/09/07 09:35:00;;;;;;;;;;;;;;;22.23;79.65;101937.84;5030841;28;19923;-74
2023/09/07 09:37:26;;;;;;;;;;;;;;;22.24;79.37;101943.03;5034484;28;19913;-74
2023/09/07 09:39:53;;;;;;;;;;;;;;;22.32;79.38;101947.00;5035057;28;19943;-74
2023/09/07 09:42:19;;;;;;;;;;;;;;;22.37;79.03;101944.84;5034366;28;19928;-74
2023/09/07 09:44:45;;;;;;;;;;;;;;;22.38;78.25;101944.75;5034976;28;19920;-74
2023/09/07 09:47:13;;;;;;;;;;;;;;;22.41;78.85;101946.31;5035126;28;20114;-74
2023/09/07 09:49:38;;;;;;;;;;;;;;;22.46;78.91;101943.34;5034081;28;19913;-74
2023/09/07 09:52:04;;;;;;;;;;;;;;;22.54;77.84;101938.25;5034787;28;20238;-74
2023/09/07 09:54:30;;;;;;;;;;;;;;;22.61;77.32;101951.06;5034520;28;20207;-74
2023/09/07 09:56:55;;;;;;;;;;;;;;;22.68;76.81;101948.78;5034720;28;19936;-74
2023/09/07 09:59:20;;;;;;;;;;;;;;;22.80;76.35;101942.50;5034226;28;19953;-74
2023/09/07 10:01:47;;;;;;;;;;;;;;;22.90;75.48;101937.34;5034409;28;19987;-73
2023/09/07 10:04:17;;;;;;;;;;;;;;;22.88;75.82;101941.94;5034144;28;20275;-74
2023/09/07 10:07:01;;;;;;;;;;;;;;;22.89;75.66;101943.66;5034277;28;20023;-74
2023/09/07 10:09:33;;;;;;;;;;;;;;;22.97;75.79;101932.38;5033779;28;19929;-74
2023/09/07 10:11:59;;;;;;;;;;;;;;;23.13;73.33;101934.75;5034655;28;20200;-73
2023/09/07 10:14:25;;;;;;;;;;;;;;;23.25;72.88;101930.28;5033922;28;20125;-74
2023/09/07 10:16:52;;;;;;;;;;;;;;;23.33;71.81;101925.22;5034780;28;19917;-74
2023/09/07 10:19:19;;;;;;;;;;;;;;;23.40;71.84;101922.91;5033433;28;19975;-74
2023/09/07 10:21:44;;;;;;;;;;;;;;;23.41;71.91;101922.78;5029388;28;19925;-73
2023/09/07 10:24:10;;;;;;;;;;;;;;;23.42;72.42;101926.31;5028124;28;20271;-74
2023/09/07 10:26:35;;;;;;;;;;;;;;;23.41;72.80;101922.78;5029084;28;19944;-74
2023/09/07 10:29:03;;;;;;;;;;;;;;;23.44;72.51;101932.41;5029098;28;19921;-74
2023/09/07 10:31:30;;;;;;;;;;;;;;;23.53;71.69;101929.00;5031863;28;20180;-73
2023/09/07 10:33:55;;;;;;;;;;;;;;;23.58;70.50;101921.47;5034413;28;19952;-74
2023/09/07 10:36:24;;;;;;;;;;;;;;;23.62;69.17;101930.09;5035435;28;19920;-74
2023/09/07 10:38:53;;;;;;;;;;;;;;;23.66;69.44;101923.53;5038623;28;19913;-74
2023/09/07 10:41:18;;;;;;;;;;;;;;;23.69;69.73;101923.28;5037296;28;19917;-74
2023/09/07 10:43:47;;;;;;;;;;;;;;;23.69;70.03;101921.47;5032092;28;19920;-74
2023/09/07 10:46:13;;;;;;;;;;;;;;;23.80;70.04;101920.63;5019481;28;19941;-73
2023/09/07 10:48:38;;;;;;;;;;;;;;;23.88;69.92;101923.53;5033450;28;19913;-74
2023/09/07 10:51:03;;;;;;;;;;;;;;;24.00;69.48;101915.53;5027720;28;19955;-74
2023/09/07 10:53:30;;;;;;;;;;;;;;;24.07;69.03;101917.56;5023645;28;19984;-74
2023/09/07 10:55:56;;;;;;;;;;;;;;;24.13;68.66;101913.53;5036592;28;20114;-74
2023/09/07 10:58:30;;;;;;;;;;;;;;;24.12;69.01;101911.81;5037683;28;19917;-74
2023/09/07 11:00:55;;;;;;;;;;;;;;;24.08;69.89;101905.88;5038284;28;19920;-74
2023/09/07 11:03:21;;;;;;;;;;;;;;;24.08;70.25;101907.72;5033143;28;19920;-73
2023/09/07 11:05:47;;;;;;;;;;;;;;;24.12;68.85;101906.47;5035555;28;19917;-73
2023/09/07 11:08:12;;;;;;;;;;;;;;;24.25;67.87;101903.63;5037640;28;20051;-74
2023/09/07 11:10:37;;;;;;;;;;;;;;;24.41;67.15;101900.56;5037406;28;19946;-74
2023/09/07 11:13:06;;;;;;;;;;;;;;;24.52;66.47;101897.84;5037942;28;19988;-73
2023/09/07 11:15:33;;;;;;;;;;;;;;;24.65;65.34;101897.69;5037499;28;19913;-73
2023/09/07 11:17:58;;;;;;;;;;;;;;;24.75;64.36;101892.44;5036900;28;19913;-73
2023/09/07 11:20:24;;;;;;;;;;;;;;;24.77;63.64;101887.78;5037783;28;19978;-73
2023/09/07 11:22:49;;;;;;;;;;;;;;;24.73;65.24;101886.34;5037961;28;19917;-74
2023/09/07 11:25:14;;;;;;;;;;;;;;;24.79;64.99;101880.47;5037953;28;20246;-73
2023/09/07 11:27:40;;;;;;;;;;;;;;;24.86;64.83;101876.28;5037607;28;20124;-74
2023/09/07 11:30:07;;;;;;;;;;;;;;;24.81;65.20;101874.00;5034124;28;19928;-74
2023/09/07 11:32:33;;;;;;;;;;;;;;;24.81;65.51;101874.00;5027425;28;19944;-74
2023/09/07 11:34:58;;;;;;;;;;;;;;;24.84;65.95;101864.84;5035349;28;19909;-74
2023/09/07 11:37:25;;;;;;;;;;;;;;;24.91;66.15;101866.03;5036643;28;20063;-74
2023/09/07 11:39:50;;;;;;;;;;;;;;;25.03;64.80;101866.78;5037507;28;19913;-74
2023/09/07 11:42:15;;;;;;;;;;;;;;;25.16;64.00;101866.56;5037245;28;20151;-74
2023/09/07 11:44:41;;;;;;;;;;;;;;;25.24;62.74;101867.66;5036553;28;19917;-74
2023/09/07 11:47:06;;;;;;;;;;;;;;;25.31;62.23;101864.44;5019592;28;20142;-74
2023/09/07 11:49:32;;;;;;;;;;;;;;;25.44;61.34;101862.38;5034876;28;19917;-72
2023/09/07 11:51:57;;;;;;;;;;;;;;;25.44;62.50;101863.22;5037460;28;19974;-72
2023/09/07 11:54:23;;;;;;;;;;;;;;;25.48;62.11;101858.44;5036645;28;20212;-72
2023/09/07 11:56:48;;;;;;;;;;;;;;;25.52;62.43;101851.81;5034130;28;19916;-72
2023/09/07 11:59:13;;;;;;;;;;;;;;;25.57;62.05;101857.63;5030557;28;19909;-72
2023/09/07 12:01:39;;;;;;;;;;;;;;;25.60;62.47;101860.03;5029204;28;19936;-72
2023/09/07 12:04:05;;;;;;;;;;;;;;;25.59;62.47;101858.31;5027181;28;19917;-72
2023/09/07 12:06:30;;;;;;;;;;;;;;;25.67;61.05;101855.00;5026411;28;19917;-72
2023/09/07 12:09:03;;;;;;;;;;;;;;;25.73;60.85;101850.91;5030000;28;19921;-72
2023/09/07 12:11:30;;;;;;;;;;;;;;;25.78;60.66;101845.97;5028438;28;20529;-72
2023/09/07 12:13:55;;;;;;;;;;;;;;;25.82;60.41;101842.88;5029889;28;19959;-72
2023/09/07 12:16:21;;;;;;;;;;;;;;;25.89;59.36;101840.50;5030216;28;19920;-72
2023/09/07 12:18:46;;;;;;;;;;;;;;;25.90;60.28;101835.97;5033493;28;19979;-72
2023/09/07 12:21:11;;;;;;;;;;;;;;;25.93;59.34;101835.72;5030167;28;19923;-72
2023/09/07 12:23:37;;;;;;;;;;;;;;;25.93;59.52;101841.94;5036200;28;19928;-72
2023/09/07 12:26:04;;;;;;;;;;;;;;;25.90;59.72;101834.13;5037260;28;19954;-72
2023/09/07 12:28:29;;;;;;;;;;;;;;;25.98;59.68;101830.81;5035836;28;20098;-72
2023/09/07 12:30:54;;;;;;;;;;;;;;;26.02;59.31;101830.38;5036871;28;19949;-72